Carlile, Wyoming
Current Conditions -  °F | °C
As of 2:35 AM on Monday 24 Nov 2014 (Local Time) from KECS Reporting Station
Clear Clear  
Wind Chill: 12°   Ceiling: Unl
Heat Index: 21°   Visibility: 10mi
Dew Point: 16°   Wind: 8mph
Humidity: 80%   Direction: 340°NNW
Pressure: 29.8"   Gusts: NA
Location:  44.49°N, 104.8°W
Report Text: KECS 240935Z AUTO 34007KT 10SM CLR M06/M09 A2980 RMK AO2
Loading
Personal Weather Stations






























Interactive Weather Map New forecast layout! Learn more

10-Day Weather Forecast

Advertisements
Track Severe Weather on mobile